createdAt,value
2019-05-15T00:00:18.697Z,63.07
2019-05-15T00:01:19.278Z,63.07
2019-05-15T00:02:18.701Z,63.59
2019-05-15T00:03:19.686Z,63.28
2019-05-15T00:04:18.787Z,63.18
2019-05-15T00:05:18.948Z,63.39
2019-05-15T00:06:19.162Z,63.49
2019-05-15T00:07:18.620Z,63.69
2019-05-15T00:08:18.658Z,63.52
2019-05-15T00:09:19.249Z,63.93
2019-05-15T00:10:18.697Z,63.49
2019-05-15T00:11:19.185Z,63.69
2019-05-15T00:12:19.004Z,64.14
2019-05-15T00:13:18.636Z,63.93
2019-05-15T00:14:18.601Z,64.03
2019-05-15T00:15:18.522Z,63.72
2019-05-15T00:16:18.601Z,64.34
2019-05-15T00:17:19.132Z,64.27
2019-05-15T00:18:18.715Z,64.68
2019-05-15T00:19:18.896Z,63.93
2019-05-15T00:20:20.270Z,64.89
2019-05-15T00:21:18.454Z,64.89
2019-05-15T00:22:18.574Z,64.78
2019-05-15T00:23:18.431Z,64.78
2019-05-15T00:24:18.451Z,64.78
2019-05-15T00:25:18.946Z,64.58
2019-05-15T00:26:18.490Z,64.47
2019-05-15T00:27:20.231Z,64.68
2019-05-15T00:28:18.620Z,64.92
2019-05-15T00:29:19.730Z,65.30
2019-05-15T00:31:19.485Z,65.19
2019-05-15T00:33:19.500Z,65.64
2019-05-15T00:34:18.438Z,65.71
2019-05-15T00:35:18.565Z,65.64
2019-05-15T00:36:19.201Z,65.53
2019-05-15T00:37:18.390Z,65.53
2019-05-15T00:38:18.757Z,65.64
2019-05-15T00:39:18.983Z,66.46
2019-05-15T00:40:18.525Z,66.56
2019-05-15T00:41:18.580Z,66.25
2019-05-15T00:42:18.999Z,66.25
2019-05-15T00:43:18.418Z,65.95
2019-05-15T00:44:18.761Z,65.33
2019-05-15T00:45:18.612Z,66.77
2019-05-15T00:46:18.429Z,67.29
2019-05-15T00:47:18.227Z,67.73
2019-05-15T00:48:18.452Z,67.42
2019-05-15T00:49:18.929Z,67.00
2019-05-15T00:50:18.420Z,66.91
2019-05-15T00:51:19.594Z,67.21
2019-05-15T00:52:18.179Z,67.21
2019-05-15T00:53:19.621Z,67.63
2019-05-15T00:54:19.196Z,67.63
2019-05-15T00:55:19.063Z,68.55
2019-05-15T00:56:19.526Z,68.45
2019-05-15T00:57:19.184Z,67.42
2019-05-15T00:58:20.056Z,67.52
2019-05-15T00:59:26.285Z,68.38
2019-05-15T01:00:18.992Z,67.97
2019-05-15T01:01:19.286Z,67.97
2019-05-15T01:02:17.999Z,68.69
2019-05-15T01:03:18.332Z,68.79
2019-05-15T01:04:18.781Z,69.41
2019-05-15T01:05:18.623Z,69.41
2019-05-15T01:06:19.040Z,69.20
2019-05-15T01:07:18.821Z,68.82
2019-05-15T01:08:19.244Z,69.44
2019-05-15T01:09:18.697Z,69.41
2019-05-15T01:10:19.355Z,69.13
2019-05-15T01:11:19.191Z,69.75
2019-05-15T01:12:18.500Z,69.85
2019-05-15T01:13:19.025Z,69.85
2019-05-15T01:14:18.615Z,68.82
2019-05-15T01:15:18.399Z,68.72
2019-05-15T01:16:18.664Z,69.65
2019-05-15T01:17:18.475Z,69.75
2019-05-15T01:18:18.722Z,69.65
2019-05-15T01:19:18.555Z,69.85
2019-05-15T01:20:18.936Z,69.58
2019-05-15T01:21:18.774Z,69.99
2019-05-15T01:22:19.506Z,69.58
2019-05-15T01:23:18.772Z,70.30
2019-05-15T01:24:18.874Z,70.61
2019-05-15T01:25:18.632Z,71.23
2019-05-15T01:26:18.905Z,71.37
2019-05-15T01:27:18.432Z,71.98
2019-05-15T01:28:18.359Z,72.09
2019-05-15T01:29:18.240Z,72.50
2019-05-15T01:30:18.009Z,72.50
2019-05-15T01:31:19.029Z,72.95
2019-05-15T01:32:19.081Z,72.85
2019-05-15T01:33:19.030Z,73.57
2019-05-15T01:34:18.497Z,73.60
2019-05-15T01:35:18.096Z,73.81
2019-05-15T01:36:19.298Z,75.05
2019-05-15T01:37:18.910Z,74.63
2019-05-15T01:38:18.738Z,75.05
2019-05-15T01:39:18.462Z,74.53
2019-05-15T01:40:18.267Z,75.60
2019-05-15T01:41:18.971Z,75.78
2019-05-15T01:42:18.601Z,75.40
2019-05-15T01:43:18.663Z,76.12
2019-05-15T01:44:17.950Z,75.91
2019-05-15T01:45:18.931Z,75.70
2019-05-15T01:46:19.073Z,76.32
2019-05-15T01:47:18.982Z,76.01
2019-05-15T01:48:18.978Z,75.70
2019-05-15T01:49:18.643Z,75.53
2019-05-15T01:50:18.531Z,76.46
2019-05-15T01:51:18.497Z,76.46
2019-05-15T01:52:18.713Z,76.78
2019-05-15T01:53:18.728Z,76.78
2019-05-15T01:54:18.698Z,76.78
2019-05-15T01:55:18.174Z,75.53
2019-05-15T01:56:18.753Z,75.84
2019-05-15T01:57:18.182Z,74.81
2019-05-15T01:58:18.605Z,75.12
2019-05-15T01:59:18.938Z,75.53
2019-05-15T02:00:18.861Z,76.46
2019-05-15T02:01:19.115Z,76.88
2019-05-15T02:02:18.743Z,77.19
2019-05-15T02:03:18.438Z,76.57
2019-05-15T02:04:19.688Z,77.29
2019-05-15T02:05:18.793Z,76.98
2019-05-15T02:06:18.939Z,77.50
2019-05-15T02:07:18.714Z,77.74
2019-05-15T02:08:19.158Z,76.81
2019-05-15T02:09:18.577Z,75.67
2019-05-15T02:10:18.637Z,76.26
2019-05-15T02:11:18.070Z,77.22
2019-05-15T02:12:19.089Z,78.26
2019-05-15T02:13:18.692Z,77.19
2019-05-15T02:14:18.966Z,76.91
2019-05-15T02:15:18.989Z,75.67
2019-05-15T02:16:19.177Z,75.88
2019-05-15T02:17:18.980Z,75.98
2019-05-15T02:18:19.199Z,75.88
2019-05-15T02:19:19.241Z,76.09
2019-05-15T02:20:18.740Z,75.57
2019-05-15T02:21:18.324Z,75.95
2019-05-15T02:22:18.937Z,76.19
2019-05-15T02:23:18.937Z,76.05
2019-05-15T02:24:18.920Z,75.78
2019-05-15T02:25:18.543Z,75.88
2019-05-15T02:26:18.892Z,76.19
2019-05-15T02:27:18.705Z,75.88
2019-05-15T02:28:18.354Z,75.88
2019-05-15T02:29:20.369Z,75.98
2019-05-15T02:30:28.323Z,76.09
2019-05-15T02:31:19.633Z,76.09
2019-05-15T02:32:19.282Z,75.98
2019-05-15T02:33:18.904Z,75.15
2019-05-15T02:34:19.451Z,75.88
2019-05-15T02:35:18.534Z,75.78
2019-05-15T02:36:20.235Z,75.26
2019-05-15T02:37:19.216Z,75.46
2019-05-15T02:38:20.016Z,75.46
2019-05-15T02:39:18.937Z,75.71
2019-05-15T02:40:19.152Z,76.02
2019-05-15T02:41:19.527Z,75.92
2019-05-15T02:42:19.255Z,75.81
2019-05-15T02:43:19.065Z,75.81
2019-05-15T02:44:19.760Z,76.02
2019-05-15T02:45:19.514Z,76.64
2019-05-15T02:46:19.477Z,77.36
2019-05-15T02:47:19.689Z,77.15
2019-05-15T02:48:19.963Z,76.74
2019-05-15T02:49:19.196Z,76.64
2019-05-15T02:50:20.222Z,76.64
2019-05-15T02:51:19.426Z,76.53
2019-05-15T02:52:19.623Z,76.32
2019-05-15T02:53:18.940Z,75.71
2019-05-15T02:54:19.672Z,76.88
2019-05-15T02:55:19.553Z,76.78
2019-05-15T02:56:20.034Z,76.78
2019-05-15T02:57:19.234Z,77.19
2019-05-15T02:58:21.108Z,77.92
2019-05-15T02:59:19.502Z,78.44
2019-05-15T03:00:32.714Z,78.02
2019-05-15T03:01:18.907Z,78.33
2019-05-15T03:02:19.091Z,78.33
2019-05-15T03:03:16.705Z,78.16
2019-05-15T03:04:19.680Z,78.64
2019-05-15T03:05:19.584Z,79.20
2019-05-15T03:06:19.238Z,79.61
2019-05-15T03:07:19.347Z,78.78
2019-05-15T03:08:19.631Z,79.82
2019-05-15T03:09:18.804Z,79.10
2019-05-15T03:10:19.723Z,79.61
2019-05-15T03:11:19.006Z,79.24
2019-05-15T03:12:19.578Z,79.41
2019-05-15T03:13:18.856Z,80.27
2019-05-15T03:14:16.558Z,79.96
2019-05-15T03:16:19.322Z,79.75
2019-05-15T03:18:19.495Z,80.79
2019-05-15T03:20:18.669Z,80.99
2019-05-15T03:21:18.800Z,81.10
2019-05-15T03:22:19.363Z,80.58
2019-05-15T03:23:19.764Z,81.24
2019-05-15T03:24:19.205Z,81.04
2019-05-15T03:26:19.769Z,81.35
2019-05-15T03:28:19.051Z,81.76
2019-05-15T03:30:21.813Z,81.66
2019-05-15T03:31:35.197Z,81.76
2019-05-15T03:32:33.446Z,81.66
2019-05-15T03:33:20.860Z,81.45
2019-05-15T03:34:23.198Z,81.80
2019-05-15T03:35:22.004Z,82.21
2019-05-15T03:36:23.091Z,82.32
2019-05-15T03:37:22.156Z,82.49
2019-05-15T03:38:19.346Z,82.84
2019-05-15T03:39:18.942Z,82.73
2019-05-15T03:41:19.468Z,82.42
2019-05-15T03:42:19.122Z,82.94
2019-05-15T03:43:18.596Z,82.94
2019-05-15T03:45:19.295Z,82.94
2019-05-15T03:47:19.446Z,82.73
2019-05-15T03:49:19.715Z,82.63
2019-05-15T03:51:19.894Z,83.29
2019-05-15T03:52:19.023Z,83.36
2019-05-15T03:53:18.945Z,83.39
2019-05-15T03:54:19.211Z,82.94
2019-05-15T03:55:18.586Z,83.15
2019-05-15T03:56:19.053Z,83.46
2019-05-15T03:57:20.078Z,83.91
2019-05-15T03:59:19.232Z,83.18
2019-05-15T04:00:19.480Z,83.18
2019-05-15T04:01:30.171Z,83.15
2019-05-15T04:02:19.355Z,83.18
2019-05-15T04:03:20.260Z,83.29
2019-05-15T04:04:18.854Z,83.08
2019-05-15T04:05:19.896Z,83.39
2019-05-15T04:06:19.050Z,83.36
2019-05-15T04:07:19.011Z,83.60
2019-05-15T04:08:19.173Z,83.08
2019-05-15T04:09:19.051Z,83.15
2019-05-15T04:10:15.936Z,83.25
2019-05-15T04:11:20.351Z,82.94
2019-05-15T04:12:15.955Z,83.18
2019-05-15T04:13:19.895Z,82.98
2019-05-15T04:14:19.148Z,83.04
2019-05-15T04:16:19.066Z,83.25
2019-05-15T04:18:19.758Z,82.84
2019-05-15T04:20:19.880Z,82.94
2019-05-15T04:22:19.513Z,82.84
2019-05-15T04:23:19.227Z,83.15
2019-05-15T04:24:18.824Z,82.94
2019-05-15T04:26:19.360Z,82.94
2019-05-15T04:27:20.308Z,83.46
2019-05-15T04:28:19.115Z,82.94
2019-05-15T04:29:19.758Z,82.94
2019-05-15T04:30:18.791Z,82.94
2019-05-15T04:31:19.641Z,82.84
2019-05-15T04:32:15.720Z,82.53
2019-05-15T04:33:19.965Z,82.21
2019-05-15T04:34:15.753Z,82.32
2019-05-15T04:37:18.867Z,81.76
2019-05-15T04:38:19.608Z,81.35
2019-05-15T04:39:19.062Z,81.35
2019-05-15T04:40:15.734Z,81.04
2019-05-15T04:41:15.599Z,80.52
2019-05-15T04:42:15.643Z,80.73
2019-05-15T04:43:15.589Z,80.93
2019-05-15T04:44:15.695Z,80.47
2019-05-15T04:45:15.562Z,80.27
2019-05-15T04:46:19.354Z,80.27
2019-05-15T04:47:15.534Z,80.47
2019-05-15T04:48:15.621Z,80.44
2019-05-15T04:49:15.571Z,79.51
2019-05-15T04:50:15.598Z,78.92
2019-05-15T04:51:15.486Z,78.99
2019-05-15T04:52:15.511Z,78.47
2019-05-15T04:53:19.049Z,78.47
2019-05-15T04:54:15.558Z,77.85
2019-05-15T04:55:15.444Z,77.61
2019-05-15T04:56:15.535Z,77.50
2019-05-15T04:57:15.436Z,77.50
2019-05-15T04:59:19.509Z,77.15
2019-05-15T05:00:15.468Z,76.95
2019-05-15T05:01:15.400Z,76.64
2019-05-15T05:02:19.523Z,75.50
2019-05-15T05:03:19.370Z,76.29
2019-05-15T05:04:15.542Z,74.63
2019-05-15T05:05:15.333Z,75.43
2019-05-15T05:06:18.794Z,74.60
2019-05-15T05:07:15.323Z,74.40
2019-05-15T05:08:15.426Z,73.77
2019-05-15T05:09:15.343Z,73.46
2019-05-15T05:10:15.341Z,73.43
2019-05-15T05:11:15.284Z,73.02
2019-05-15T05:12:15.344Z,72.60
2019-05-15T05:13:15.270Z,72.16
2019-05-15T05:14:15.395Z,71.74
2019-05-15T05:15:15.278Z,72.36
2019-05-15T05:16:15.281Z,71.95
2019-05-15T05:17:15.246Z,70.81
2019-05-15T05:18:15.286Z,70.67
2019-05-15T05:19:15.202Z,70.37
2019-05-15T05:20:15.327Z,70.12
2019-05-15T05:21:15.174Z,70.64
2019-05-15T05:22:15.157Z,69.92
2019-05-15T05:23:15.153Z,69.61
2019-05-15T05:24:15.247Z,69.92
2019-05-15T05:25:15.179Z,69.40
2019-05-15T05:26:15.117Z,69.06
2019-05-15T05:27:15.107Z,68.51
2019-05-15T05:28:15.152Z,68.21
2019-05-15T05:29:15.072Z,67.90
2019-05-15T05:30:15.188Z,66.97
2019-05-15T05:31:15.067Z,66.73
2019-05-15T05:32:30.500Z,67.03
2019-05-15T05:33:17.865Z,66.94
2019-05-15T05:34:15.093Z,67.21
2019-05-15T05:35:15.045Z,66.60
2019-05-15T05:36:15.125Z,66.49
2019-05-15T05:37:15.031Z,65.46
2019-05-15T05:38:15.024Z,65.46
2019-05-15T05:39:17.661Z,64.81
2019-05-15T05:40:18.806Z,65.12
2019-05-15T05:41:14.947Z,63.68
2019-05-15T05:42:15.044Z,62.65
2019-05-15T05:43:14.929Z,62.75
2019-05-15T05:44:14.990Z,62.93
2019-05-15T05:45:14.949Z,63.24
2019-05-15T05:46:15.413Z,62.82
2019-05-15T05:47:14.882Z,61.69
2019-05-15T05:48:14.990Z,61.87
2019-05-15T05:49:14.862Z,62.79
2019-05-15T05:50:14.927Z,62.70
2019-05-15T05:51:14.871Z,62.38
2019-05-15T05:52:14.923Z,61.56
2019-05-15T05:53:14.820Z,61.43
2019-05-15T05:54:14.924Z,61.53
2019-05-15T05:55:14.794Z,61.02
2019-05-15T05:56:14.859Z,60.50
2019-05-15T05:57:14.775Z,59.55
2019-05-15T05:58:14.776Z,60.17
2019-05-15T05:59:14.761Z,58.70
2019-05-15T06:00:14.864Z,59.11
2019-05-15T06:01:14.771Z,58.91
2019-05-15T06:02:14.766Z,59.31
2019-05-15T06:03:14.712Z,58.18
2019-05-15T06:04:14.740Z,58.80
2019-05-15T06:05:14.714Z,57.36
2019-05-15T06:06:14.718Z,57.98
2019-05-15T06:07:14.715Z,57.34
2019-05-15T06:08:14.666Z,56.51
2019-05-15T06:09:14.667Z,57.13
2019-05-15T06:10:14.653Z,56.82
2019-05-15T06:11:14.646Z,56.62
2019-05-15T06:12:14.615Z,57.34
2019-05-15T06:13:14.598Z,56.41
2019-05-15T06:14:14.640Z,55.79
2019-05-15T06:15:14.598Z,55.05
2019-05-15T06:16:14.703Z,55.66
2019-05-15T06:17:14.582Z,55.46
2019-05-15T06:18:14.576Z,55.46
2019-05-15T06:19:14.538Z,55.26
2019-05-15T06:20:14.550Z,54.85
2019-05-15T06:21:14.511Z,55.02
2019-05-15T06:22:14.546Z,55.13
2019-05-15T06:23:14.502Z,54.61
2019-05-15T06:24:14.498Z,52.66
2019-05-15T06:25:14.473Z,53.05
2019-05-15T06:26:14.478Z,54.08
2019-05-15T06:27:14.462Z,54.38
2019-05-15T06:28:14.466Z,53.56
2019-05-15T06:29:14.435Z,53.25
2019-05-15T06:30:19.983Z,53.33
2019-05-15T06:31:15.402Z,52.84
2019-05-15T06:32:14.714Z,52.95
2019-05-15T06:33:14.402Z,52.44
2019-05-15T06:34:14.399Z,53.03
2019-05-15T06:35:14.367Z,52.84
2019-05-15T06:36:14.358Z,52.20
2019-05-15T06:37:14.368Z,51.28
2019-05-15T06:38:14.338Z,52.61
2019-05-15T06:39:14.325Z,53.03
2019-05-15T06:40:14.316Z,54.33
2019-05-15T06:41:14.313Z,53.03
2019-05-15T06:42:14.320Z,53.10
2019-05-15T06:43:14.298Z,52.90
2019-05-15T06:44:14.364Z,53.82
2019-05-15T06:45:14.256Z,53.59
2019-05-15T06:46:14.367Z,52.59
2019-05-15T06:47:14.257Z,52.47
2019-05-15T06:48:14.311Z,52.56
2019-05-15T06:49:14.210Z,51.54
2019-05-15T06:50:14.205Z,50.90
2019-05-15T06:51:14.183Z,51.82
2019-05-15T06:52:14.187Z,50.49
2019-05-15T06:53:14.230Z,50.18
2019-05-15T06:54:14.157Z,49.57
2019-05-15T06:55:14.157Z,49.47
2019-05-15T06:56:14.154Z,49.96
2019-05-15T06:57:14.134Z,50.88
2019-05-15T06:58:14.165Z,49.75
2019-05-15T06:59:14.102Z,49.55
2019-05-15T07:00:14.099Z,49.14
2019-05-15T07:01:14.079Z,49.83
2019-05-15T07:02:14.175Z,48.09
2019-05-15T07:03:21.391Z,47.78
2019-05-15T07:04:15.039Z,47.99
2019-05-15T07:05:14.103Z,46.56
2019-05-15T07:06:14.017Z,47.05
2019-05-15T07:07:14.033Z,46.23
2019-05-15T07:08:14.039Z,46.33
2019-05-15T07:09:14.007Z,46.03
2019-05-15T07:10:13.978Z,45.10
2019-05-15T07:11:13.981Z,45.51
2019-05-15T07:12:13.962Z,45.23
2019-05-15T07:13:14.143Z,44.61
2019-05-15T07:14:13.937Z,44.08
2019-05-15T07:15:13.939Z,44.59
2019-05-15T07:16:13.907Z,43.98
2019-05-15T07:17:13.970Z,43.98
2019-05-15T07:18:13.926Z,43.26
2019-05-15T07:19:13.932Z,43.04
2019-05-15T07:20:13.912Z,43.76
2019-05-15T07:21:13.867Z,43.44
2019-05-15T07:22:13.847Z,43.65
2019-05-15T07:23:13.879Z,43.55
2019-05-15T07:24:13.826Z,43.55
2019-05-15T07:25:13.853Z,43.12
2019-05-15T07:26:13.822Z,43.53
2019-05-15T07:27:13.828Z,42.91
2019-05-15T07:28:13.808Z,43.73
2019-05-15T07:29:13.863Z,42.71
2019-05-15T07:30:13.755Z,43.43
2019-05-15T07:31:13.847Z,43.94
2019-05-15T07:32:13.745Z,44.04
2019-05-15T07:33:13.767Z,42.81
2019-05-15T07:34:13.753Z,43.43
2019-05-15T07:35:13.909Z,43.53
2019-05-15T07:36:13.695Z,43.61
2019-05-15T07:37:13.690Z,43.71
2019-05-15T07:38:13.677Z,44.22
2019-05-15T07:39:13.694Z,44.12
2019-05-15T07:40:13.660Z,42.69
2019-05-15T07:41:13.645Z,43.51
2019-05-15T07:42:13.647Z,43.71
2019-05-15T07:43:13.636Z,43.00
2019-05-15T07:44:13.633Z,43.51
2019-05-15T07:45:13.659Z,44.51
2019-05-15T07:46:13.585Z,41.35
2019-05-15T07:47:13.658Z,42.26
2019-05-15T07:48:13.582Z,42.26
2019-05-15T07:49:13.606Z,42.57
2019-05-15T07:50:13.548Z,41.96
2019-05-15T07:51:13.558Z,42.77
2019-05-15T07:52:13.520Z,43.37
2019-05-15T07:53:13.514Z,41.83
2019-05-15T07:54:13.534Z,42.04
2019-05-15T07:55:13.547Z,43.26
2019-05-15T07:56:13.484Z,43.16
2019-05-15T07:57:13.473Z,42.04
2019-05-15T07:58:13.462Z,41.83
2019-05-15T07:59:13.471Z,42.94
2019-05-15T08:00:13.470Z,43.35
2019-05-15T08:01:13.447Z,42.73
2019-05-15T08:02:13.409Z,42.82
2019-05-15T08:03:13.463Z,40.98
2019-05-15T08:04:24.690Z,40.98
2019-05-15T08:05:14.403Z,41.49
2019-05-15T08:06:13.380Z,40.96
2019-05-15T08:07:13.357Z,40.66
2019-05-15T08:08:13.349Z,40.98
2019-05-15T08:09:13.345Z,42.39
2019-05-15T08:10:13.362Z,41.57
2019-05-15T08:11:21.964Z,42.16
2019-05-15T08:12:14.310Z,40.74
2019-05-15T08:13:13.313Z,40.12
2019-05-15T08:14:13.298Z,39.94
2019-05-15T08:15:13.300Z,39.43
2019-05-15T08:16:13.285Z,39.74
2019-05-15T08:17:13.364Z,40.66
2019-05-15T08:18:13.234Z,40.25
2019-05-15T08:19:13.289Z,40.05
2019-05-15T08:20:13.236Z,39.92
2019-05-15T08:21:13.216Z,40.33
2019-05-15T08:22:15.123Z,40.03
2019-05-15T08:23:13.205Z,39.50
2019-05-15T08:24:13.172Z,39.01
2019-05-15T08:25:26.686Z,39.72
2019-05-15T08:26:14.181Z,40.74
2019-05-15T08:27:13.158Z,39.70
2019-05-15T08:28:13.130Z,39.31
2019-05-15T08:29:13.247Z,39.31
2019-05-15T08:30:13.146Z,39.42
2019-05-15T08:31:13.185Z,40.23
2019-05-15T08:32:13.115Z,40.21
2019-05-15T08:33:13.200Z,39.29
2019-05-15T08:34:16.262Z,38.38
2019-05-15T08:35:13.174Z,38.78
2019-05-15T08:36:13.072Z,39.40
2019-05-15T08:37:13.039Z,38.99
2019-05-15T08:38:14.377Z,38.68
2019-05-15T08:39:13.019Z,39.60
2019-05-15T08:40:13.096Z,38.28
2019-05-15T08:41:15.494Z,39.09
2019-05-15T08:42:12.998Z,39.29
2019-05-15T08:43:12.978Z,39.60
2019-05-15T08:44:12.969Z,40.21
2019-05-15T08:45:12.995Z,38.87
2019-05-15T08:46:12.970Z,39.48
2019-05-15T08:47:13.066Z,39.58
2019-05-15T08:48:12.925Z,39.48
2019-05-15T08:49:12.916Z,39.87
2019-05-15T08:50:12.901Z,39.46
2019-05-15T08:51:12.918Z,39.44
2019-05-15T08:52:12.884Z,38.73
2019-05-15T08:53:12.874Z,38.02
2019-05-15T08:54:12.858Z,39.14
2019-05-15T08:55:12.857Z,39.62
2019-05-15T08:56:14.755Z,38.61
2019-05-15T08:57:12.831Z,38.51
2019-05-15T08:58:14.098Z,38.92
2019-05-15T08:59:12.830Z,39.00
2019-05-15T09:00:12.795Z,38.81
2019-05-15T09:01:13.288Z,39.30
2019-05-15T09:02:12.790Z,38.37
2019-05-15T09:03:12.861Z,38.78
2019-05-15T09:04:26.606Z,37.66
2019-05-15T09:05:13.722Z,38.07
2019-05-15T09:06:12.766Z,37.17
2019-05-15T09:07:12.741Z,36.76
2019-05-15T09:08:12.696Z,37.98
2019-05-15T09:09:12.686Z,38.29
2019-05-15T09:10:12.680Z,37.35
2019-05-15T09:11:12.711Z,36.34
2019-05-15T09:12:12.655Z,37.05
2019-05-15T09:13:12.642Z,36.97
2019-05-15T09:14:12.676Z,37.05
2019-05-15T09:15:12.619Z,37.56
2019-05-15T09:16:12.655Z,37.66
2019-05-15T09:17:12.644Z,37.26
2019-05-15T09:18:16.144Z,37.15
2019-05-15T09:19:12.572Z,38.07
2019-05-15T09:20:12.593Z,37.04
2019-05-15T09:21:12.569Z,37.04
2019-05-15T09:22:12.593Z,36.83
2019-05-15T09:23:12.538Z,37.85
2019-05-15T09:24:12.523Z,37.64
2019-05-15T09:25:12.510Z,36.71
2019-05-15T09:26:12.510Z,35.82
2019-05-15T09:27:12.528Z,35.72
2019-05-15T09:28:12.522Z,36.93
2019-05-15T09:29:12.478Z,37.13
2019-05-15T09:30:12.533Z,38.05
2019-05-15T09:31:12.445Z,37.13
2019-05-15T09:32:12.726Z,37.12
2019-05-15T09:33:12.489Z,37.02
2019-05-15T09:34:12.481Z,35.51
2019-05-15T09:35:12.400Z,37.04
2019-05-15T09:36:12.403Z,38.25
2019-05-15T09:37:12.394Z,37.32
2019-05-15T09:38:12.412Z,38.34
2019-05-15T09:39:13.506Z,38.12
2019-05-15T09:40:12.357Z,36.88
2019-05-15T09:41:12.328Z,35.97
2019-05-15T09:42:12.330Z,35.44
2019-05-15T09:43:12.323Z,35.95
2019-05-15T09:44:12.348Z,35.85
2019-05-15T09:45:12.304Z,36.76
2019-05-15T09:46:12.346Z,36.15
2019-05-15T09:47:12.278Z,35.13
2019-05-15T09:48:14.743Z,35.02
2019-05-15T09:49:12.281Z,35.04
2019-05-15T09:50:12.252Z,34.52
2019-05-15T09:51:12.225Z,35.94
2019-05-15T09:52:12.224Z,36.04
2019-05-15T09:53:12.210Z,34.92
2019-05-15T09:54:12.230Z,36.14
2019-05-15T09:55:12.213Z,35.83
2019-05-15T09:56:12.185Z,34.72
2019-05-15T09:57:12.168Z,34.82
2019-05-15T09:58:12.164Z,33.30
2019-05-15T09:59:12.166Z,34.42
2019-05-15T10:00:12.243Z,34.62
2019-05-15T10:01:12.122Z,36.04
2019-05-15T10:02:12.145Z,35.13
2019-05-15T10:03:12.107Z,34.80
2019-05-15T10:04:12.119Z,34.40
2019-05-15T10:05:12.070Z,34.80
2019-05-15T10:06:12.069Z,34.28
2019-05-15T10:07:12.069Z,35.09
2019-05-15T10:08:12.066Z,34.89
2019-05-15T10:09:12.027Z,36.10
2019-05-15T10:10:12.035Z,36.00
2019-05-15T10:11:11.999Z,35.90
2019-05-15T10:12:11.998Z,34.57
2019-05-15T10:13:12.009Z,34.37
2019-05-15T10:14:11.971Z,34.47
2019-05-15T10:15:11.978Z,34.77
2019-05-15T10:16:11.954Z,34.67
2019-05-15T10:17:11.949Z,35.08
2019-05-15T10:18:12.090Z,33.75
2019-05-15T10:19:11.907Z,34.66
2019-05-15T10:20:12.122Z,34.44
2019-05-15T10:21:11.931Z,33.53
2019-05-15T10:22:11.901Z,34.15
2019-05-15T10:23:11.885Z,32.93
2019-05-15T10:24:11.970Z,32.93
2019-05-15T10:25:11.893Z,33.26
2019-05-15T10:26:14.241Z,33.76
2019-05-15T10:27:11.823Z,34.55
2019-05-15T10:28:15.118Z,34.25
2019-05-15T10:29:11.839Z,33.43
2019-05-15T10:30:11.917Z,34.25
2019-05-15T10:31:11.782Z,33.54
2019-05-15T10:32:11.780Z,33.44
2019-05-15T10:33:11.777Z,34.75
2019-05-15T10:34:11.892Z,34.55
2019-05-15T10:35:24.717Z,33.54
2019-05-15T10:36:12.735Z,33.22
2019-05-15T10:37:11.723Z,34.44
2019-05-15T10:38:11.720Z,33.43
2019-05-15T10:39:11.753Z,33.63
2019-05-15T10:40:11.681Z,34.13
2019-05-15T10:41:15.133Z,33.51
2019-05-15T10:42:11.672Z,33.01
2019-05-15T10:43:11.657Z,33.41
2019-05-15T10:44:11.681Z,33.72
2019-05-15T10:45:11.637Z,34.81
2019-05-15T10:46:13.034Z,33.50
2019-05-15T10:47:11.636Z,31.88
2019-05-15T10:48:11.620Z,31.79
2019-05-15T10:49:11.648Z,32.01
2019-05-15T10:50:11.626Z,32.21
2019-05-15T10:51:11.582Z,33.53
2019-05-15T10:52:11.639Z,34.03
2019-05-15T10:53:11.557Z,32.82
2019-05-15T10:54:11.559Z,35.14
2019-05-15T10:55:11.553Z,33.22
2019-05-15T10:56:11.519Z,33.53
2019-05-15T10:57:11.613Z,33.43
2019-05-15T10:58:16.630Z,33.21
2019-05-15T10:59:12.542Z,33.21
2019-05-15T11:00:11.507Z,32.99
2019-05-15T11:01:11.659Z,33.39
2019-05-15T11:02:11.448Z,33.50
2019-05-15T11:03:11.552Z,32.87
2019-05-15T11:04:11.438Z,34.08
2019-05-15T11:05:11.542Z,32.27
2019-05-15T11:06:11.497Z,34.47
2019-05-15T11:07:11.573Z,33.67
2019-05-15T11:08:11.378Z,33.06
2019-05-15T11:09:11.592Z,31.45
2019-05-15T11:10:11.521Z,30.44
2019-05-15T11:11:11.419Z,31.45
2019-05-15T11:12:11.352Z,31.95
2019-05-15T11:13:11.408Z,32.35
2019-05-15T11:14:11.336Z,33.26
2019-05-15T11:15:11.575Z,31.95
2019-05-15T11:16:11.303Z,31.45
2019-05-15T11:17:11.335Z,31.15
2019-05-15T11:18:11.276Z,31.75
2019-05-15T11:19:11.351Z,32.05
2019-05-15T11:20:11.278Z,30.93
2019-05-15T11:21:11.260Z,32.15
2019-05-15T11:22:11.240Z,32.24
2019-05-15T11:23:11.283Z,32.34
2019-05-15T11:24:11.232Z,31.63
2019-05-15T11:25:12.253Z,31.23
2019-05-15T11:26:11.181Z,31.93
2019-05-15T11:27:11.311Z,31.84
2019-05-15T11:28:11.178Z,31.35
2019-05-15T11:29:11.240Z,32.14
2019-05-15T11:30:11.191Z,31.63
2019-05-15T11:31:11.266Z,32.95
2019-05-15T11:32:11.116Z,30.93
2019-05-15T11:33:11.139Z,30.52
2019-05-15T11:34:11.100Z,31.43
2019-05-15T11:35:11.155Z,32.53
2019-05-15T11:36:11.128Z,33.13
2019-05-15T11:37:11.188Z,30.62
2019-05-15T11:38:11.085Z,30.01
2019-05-15T11:39:11.084Z,29.30
2019-05-15T11:40:11.487Z,30.11
2019-05-15T11:41:11.117Z,31.32
2019-05-15T11:42:11.079Z,32.21
2019-05-15T11:43:11.112Z,29.79
2019-05-15T11:44:10.991Z,33.50
2019-05-15T11:45:11.026Z,30.31
2019-05-15T11:46:11.002Z,30.21
2019-05-15T11:47:11.083Z,30.90
2019-05-15T11:48:10.942Z,31.51
2019-05-15T11:49:11.041Z,30.90
2019-05-15T11:50:10.932Z,30.18
2019-05-15T11:51:10.969Z,31.79
2019-05-15T11:52:10.905Z,31.19
2019-05-15T11:53:10.970Z,31.30
2019-05-15T11:54:10.876Z,31.30
2019-05-15T11:55:11.007Z,31.82
2019-05-15T11:56:10.902Z,31.62
2019-05-15T11:57:10.953Z,30.41
2019-05-15T11:58:10.834Z,30.71
2019-05-15T11:59:10.946Z,29.10
2019-05-15T12:00:17.186Z,29.50
2019-05-15T12:01:11.862Z,29.61
2019-05-15T12:02:10.847Z,30.82
2019-05-15T12:03:10.790Z,30.41
2019-05-15T12:04:25.429Z,30.41
2019-05-15T12:05:11.767Z,29.99
2019-05-15T12:06:18.552Z,30.19
2019-05-15T12:07:11.805Z,32.71
2019-05-15T12:08:12.652Z,31.40
2019-05-15T12:09:10.735Z,30.28
2019-05-15T12:10:11.129Z,30.38
2019-05-15T12:11:27.023Z,31.49
2019-05-15T12:12:12.466Z,30.68
2019-05-15T12:13:10.707Z,29.26
2019-05-15T12:14:10.679Z,30.58
2019-05-15T12:15:10.719Z,31.81
2019-05-15T12:16:10.654Z,30.58
2019-05-15T12:17:15.231Z,30.48
2019-05-15T12:18:10.622Z,31.49
2019-05-15T12:19:17.030Z,30.88
2019-05-15T12:20:11.616Z,30.79
2019-05-15T12:21:11.071Z,31.48
2019-05-15T12:22:10.650Z,31.27
2019-05-15T12:23:11.095Z,31.37
2019-05-15T12:24:10.691Z,30.36
2019-05-15T12:25:10.683Z,30.27
2019-05-15T12:26:10.539Z,30.87
2019-05-15T12:27:17.861Z,31.77
2019-05-15T12:28:11.542Z,30.05
2019-05-15T12:29:10.613Z,31.16
2019-05-15T12:30:10.498Z,29.53
2019-05-15T12:31:10.523Z,29.45
2019-05-15T12:32:25.166Z,31.56
2019-05-15T12:33:11.567Z,29.95
2019-05-15T12:34:10.710Z,30.15
2019-05-15T12:35:10.443Z,30.60
2019-05-15T12:36:11.056Z,29.79
2019-05-15T12:37:10.445Z,30.52
2019-05-15T12:38:10.534Z,30.83
2019-05-15T12:39:13.641Z,31.63
2019-05-15T13:00:11.168Z,30.05
2019-05-15T13:01:17.032Z,30.27
2019-05-15T13:02:11.298Z,30.36
2019-05-15T13:03:10.153Z,30.28
2019-05-15T13:04:10.271Z,30.68
2019-05-15T13:05:10.165Z,32.48
2019-05-15T13:06:10.148Z,30.87
2019-05-15T13:07:12.725Z,29.98
2019-05-15T13:08:10.207Z,32.88
2019-05-15T13:09:10.071Z,32.98
2019-05-15T13:10:10.181Z,32.87
2019-05-15T13:11:14.959Z,30.96
2019-05-15T13:12:11.117Z,30.55
2019-05-15T13:13:10.141Z,30.26
2019-05-15T13:14:10.109Z,30.96
2019-05-15T13:15:10.030Z,31.16
2019-05-15T13:16:10.022Z,31.24
2019-05-15T13:17:09.980Z,30.46
2019-05-15T13:18:13.761Z,32.05
2019-05-15T13:19:09.968Z,33.15
2019-05-15T13:20:10.070Z,32.33
2019-05-15T13:21:09.943Z,32.73
2019-05-15T13:22:17.604Z,29.91
2019-05-15T13:23:10.979Z,29.82
2019-05-15T13:24:10.008Z,30.46
2019-05-15T13:25:09.891Z,31.68
2019-05-15T13:26:23.035Z,30.27
2019-05-15T13:27:10.898Z,29.58
2019-05-15T13:28:09.901Z,29.78
2019-05-15T13:29:09.893Z,32.71
2019-05-15T13:30:09.929Z,31.69
2019-05-15T13:31:09.834Z,31.19
2019-05-15T13:32:09.934Z,31.48
2019-05-15T13:33:10.482Z,30.27
2019-05-15T13:34:09.877Z,30.87